createdAt,value
2022-08-08T00:02:03.079Z,3.80
2022-08-08T00:04:55.473Z,3.57
2022-08-08T00:07:52.500Z,3.50
2022-08-08T00:10:49.641Z,3.80
2022-08-08T00:14:17.166Z,4.07
2022-08-08T00:16:57.018Z,3.73
2022-08-08T00:19:51.370Z,3.40
2022-08-08T00:22:42.502Z,3.70
2022-08-08T00:25:44.915Z,4.00
2022-08-08T00:28:42.354Z,3.53
2022-08-08T00:32:21.231Z,3.60
2022-08-08T00:35:20.252Z,3.27
2022-08-08T00:38:32.010Z,3.87
2022-08-08T00:42:19.729Z,4.47
2022-08-08T00:45:44.086Z,3.47
2022-08-08T00:49:01.128Z,4.10
2022-08-08T00:52:19.976Z,3.70
2022-08-08T00:55:52.913Z,3.93
2022-08-08T00:59:14.777Z,3.73
2022-08-08T01:03:57.319Z,3.73
2022-08-08T01:06:11.770Z,3.67
2022-08-08T01:09:42.696Z,3.70
2022-08-08T01:13:15.286Z,3.87
2022-08-08T01:16:37.158Z,3.90
2022-08-08T01:20:03.925Z,4.23
2022-08-08T01:24:03.225Z,3.70
2022-08-08T01:27:10.883Z,4.00
2022-08-08T01:30:55.896Z,3.80
2022-08-08T01:34:35.515Z,4.10
2022-08-08T01:38:04.649Z,4.30
2022-08-08T01:41:24.950Z,4.10
2022-08-08T01:44:34.447Z,4.40
2022-08-08T01:48:16.847Z,3.40
2022-08-08T01:50:53.823Z,4.30
2022-08-08T01:55:08.556Z,3.93
2022-08-08T01:57:17.531Z,3.90
2022-08-08T02:00:15.276Z,4.23
2022-08-08T02:03:50.587Z,3.90
2022-08-08T02:06:58.535Z,3.87
2022-08-08T02:10:12.112Z,4.17
2022-08-08T02:13:06.503Z,3.63
2022-08-08T02:16:04.498Z,4.10
2022-08-08T02:18:59.535Z,3.37
2022-08-08T02:22:16.345Z,4.33
2022-08-08T02:25:16.663Z,3.83
2022-08-08T02:28:09.427Z,4.10
2022-08-08T02:31:07.207Z,3.87
2022-08-08T02:34:27.525Z,4.07
2022-08-08T02:37:53.226Z,4.20
2022-08-08T02:40:50.264Z,4.10
2022-08-08T02:44:37.591Z,4.13
2022-08-08T02:48:13.001Z,3.90
2022-08-08T02:51:55.576Z,4.70
2022-08-08T02:55:24.548Z,4.20
2022-08-08T02:58:53.489Z,4.57
2022-08-08T03:02:28.894Z,4.47
2022-08-08T03:06:04.195Z,3.73
2022-08-08T03:09:34.075Z,4.20
2022-08-08T03:13:02.674Z,4.23
2022-08-08T03:16:35.541Z,4.17
2022-08-08T03:19:51.499Z,4.03
2022-08-08T03:22:47.350Z,4.30
2022-08-08T03:25:36.590Z,4.47
2022-08-08T03:28:33.117Z,4.67
2022-08-08T03:32:06.430Z,4.60
2022-08-08T03:34:47.413Z,4.50
2022-08-08T03:38:52.827Z,4.23
2022-08-08T03:40:52.637Z,4.63
2022-08-08T03:43:41.711Z,5.03
2022-08-08T03:46:32.478Z,4.70
2022-08-08T03:49:57.803Z,4.63
2022-08-08T03:52:31.407Z,4.80
2022-08-08T03:55:55.911Z,4.47
2022-08-08T03:58:37.343Z,4.67
2022-08-08T04:02:22.973Z,4.77
2022-08-08T04:04:45.469Z,4.60
2022-08-08T04:07:37.378Z,4.23
2022-08-08T04:10:24.469Z,4.57
2022-08-08T04:13:17.993Z,4.23
2022-08-08T04:16:11.759Z,4.30
2022-08-08T04:19:02.564Z,4.73
2022-08-08T04:21:50.353Z,4.90
2022-08-08T04:24:37.055Z,4.30
2022-08-08T04:28:02.535Z,4.27
2022-08-08T04:30:44.159Z,4.40
2022-08-08T04:33:41.545Z,4.53
2022-08-08T04:36:30.006Z,4.37
2022-08-08T04:40:04.022Z,4.43
2022-08-08T04:42:26.138Z,4.50
2022-08-08T04:45:13.264Z,4.17
2022-08-08T04:48:01.542Z,4.77
2022-08-08T04:50:54.014Z,4.37
2022-08-08T04:54:26.937Z,4.20
2022-08-08T04:56:56.352Z,5.00
2022-08-08T04:59:48.999Z,4.47
2022-08-08T05:02:37.348Z,4.10
2022-08-08T05:05:44.465Z,4.57
2022-08-08T05:08:35.949Z,3.70
2022-08-08T05:11:26.194Z,4.37
2022-08-08T05:19:02.083Z,3.83
2022-08-08T05:21:59.579Z,3.80
2022-08-08T05:24:49.444Z,3.83
2022-08-08T05:27:41.600Z,3.57
2022-08-08T05:30:39.453Z,3.57
2022-08-08T05:33:44.237Z,4.13
2022-08-08T05:36:41.094Z,3.97
2022-08-08T05:39:35.006Z,4.33
2022-08-08T05:42:39.734Z,7.30
2022-08-08T05:45:41.295Z,5.90
2022-08-08T05:48:31.428Z,8.80
2022-08-08T05:51:23.189Z,6.03
2022-08-08T05:54:28.914Z,6.03
2022-08-08T05:57:57.499Z,6.47
2022-08-08T06:00:39.070Z,7.73
2022-08-08T06:03:33.633Z,8.13
2022-08-08T06:06:32.470Z,6.80
2022-08-08T06:09:58.447Z,6.90
2022-08-08T06:12:38.374Z,4.93
2022-08-08T06:15:49.902Z,4.03
2022-08-08T06:18:40.011Z,5.00
2022-08-08T06:21:48.449Z,5.83
2022-08-08T06:24:47.243Z,5.20
2022-08-08T06:27:52.528Z,4.27
2022-08-08T06:30:41.833Z,4.13
2022-08-08T06:34:26.150Z,3.60
2022-08-08T06:36:53.905Z,3.70
2022-08-08T06:39:55.995Z,3.43
2022-08-08T06:42:52.133Z,3.63
2022-08-08T06:45:44.898Z,3.10
2022-08-08T06:48:38.479Z,3.60
2022-08-08T06:51:46.717Z,3.50
2022-08-08T06:54:38.845Z,3.07
2022-08-08T06:57:29.465Z,3.20
2022-08-08T07:00:40.730Z,3.03
2022-08-08T07:03:52.579Z,4.03
2022-08-08T07:06:46.995Z,3.43
2022-08-08T07:09:45.609Z,3.80
2022-08-08T07:12:47.592Z,3.40
2022-08-08T07:16:04.394Z,3.10
2022-08-08T07:19:06.945Z,3.00
2022-08-08T07:22:05.411Z,3.33
2022-08-08T07:25:01.795Z,2.70
2022-08-08T07:28:02.635Z,2.53
2022-08-08T07:30:58.934Z,2.70
2022-08-08T07:33:53.272Z,3.10
2022-08-08T07:36:50.234Z,2.63
2022-08-08T07:39:56.028Z,2.87
2022-08-08T07:42:48.364Z,2.80
2022-08-08T07:45:51.526Z,2.53
2022-08-08T07:48:45.084Z,2.93
2022-08-08T07:51:45.058Z,2.90
2022-08-08T07:54:44.978Z,2.73
2022-08-08T07:57:45.016Z,2.73
2022-08-08T08:00:41.946Z,2.70
2022-08-08T08:03:43.455Z,2.83
2022-08-08T08:06:41.708Z,3.30
2022-08-08T08:09:38.042Z,3.00
2022-08-08T08:12:35.190Z,3.00
2022-08-08T08:15:32.365Z,2.93
2022-08-08T08:18:31.692Z,2.47
2022-08-08T08:21:44.664Z,3.07
2022-08-08T08:24:51.590Z,2.53
2022-08-08T08:27:46.734Z,2.50
2022-08-08T08:30:35.530Z,2.50
2022-08-08T08:33:22.474Z,2.63
2022-08-08T08:36:19.922Z,2.40
2022-08-08T08:40:00.277Z,2.63
2022-08-08T08:42:43.457Z,2.50
2022-08-08T08:45:40.859Z,2.40
2022-08-08T08:48:32.494Z,2.47
2022-08-08T08:51:20.946Z,2.43
2022-08-08T08:54:09.375Z,2.13
2022-08-08T08:56:58.100Z,2.20
2022-08-08T08:59:59.074Z,2.30
2022-08-08T09:02:48.649Z,2.33
2022-08-08T09:05:53.799Z,4.17
2022-08-08T09:08:51.998Z,1.50
2022-08-08T09:11:47.670Z,1.70
2022-08-08T09:14:50.353Z,1.80
2022-08-08T09:17:52.494Z,2.00
2022-08-08T09:22:00.133Z,2.13
2022-08-08T09:24:04.301Z,2.00
2022-08-08T09:27:14.851Z,2.17
2022-08-08T09:30:23.217Z,2.40
2022-08-08T09:34:15.037Z,2.07
2022-08-08T09:36:31.543Z,1.80
2022-08-08T09:39:23.537Z,2.00
2022-08-08T09:42:21.281Z,2.27
2022-08-08T09:45:15.570Z,1.90
2022-08-08T09:48:17.815Z,2.20
2022-08-08T09:51:11.034Z,2.07
2022-08-08T09:54:09.614Z,1.73
2022-08-08T09:57:16.920Z,2.03
2022-08-08T10:00:50.116Z,2.17
2022-08-08T10:03:31.622Z,2.60
2022-08-08T10:06:21.244Z,2.30
2022-08-08T10:09:16.538Z,1.87
2022-08-08T10:12:28.420Z,2.27
2022-08-08T10:15:18.507Z,2.00
2022-08-08T10:18:10.402Z,1.83
2022-08-08T10:21:08.421Z,1.77
2022-08-08T10:24:29.530Z,2.07
2022-08-08T10:27:18.984Z,2.23
2022-08-08T10:30:08.192Z,2.33
2022-08-08T10:33:09.858Z,2.00
2022-08-08T10:36:08.438Z,1.87
2022-08-08T10:39:11.085Z,1.90
2022-08-08T10:42:16.820Z,1.77
2022-08-08T10:45:08.099Z,1.90
2022-08-08T10:47:58.291Z,2.53
2022-08-08T10:50:47.327Z,2.00
2022-08-08T10:53:56.606Z,1.93
2022-08-08T10:56:43.714Z,1.80
2022-08-08T10:59:31.020Z,2.00
2022-08-08T11:02:26.784Z,2.30
2022-08-08T11:05:44.788Z,2.00
2022-08-08T11:08:53.335Z,1.90
2022-08-08T11:12:04.686Z,2.27
2022-08-08T11:15:00.705Z,1.80
2022-08-08T11:17:59.742Z,1.80
2022-08-08T11:20:52.391Z,2.00
2022-08-08T11:23:43.891Z,1.83
2022-08-08T11:26:34.650Z,1.87
2022-08-08T11:29:41.901Z,1.77
2022-08-08T11:32:39.132Z,2.00
2022-08-08T11:35:38.508Z,2.57
2022-08-08T11:38:39.057Z,2.33
2022-08-08T11:41:33.666Z,2.07
2022-08-08T11:44:29.087Z,1.83
2022-08-08T11:47:17.009Z,1.93
2022-08-08T11:50:10.073Z,2.20
2022-08-08T11:52:59.018Z,2.20
2022-08-08T11:55:50.300Z,2.13
2022-08-08T11:58:45.114Z,2.20
2022-08-08T12:01:41.534Z,2.00
2022-08-08T12:04:29.348Z,1.90
2022-08-08T12:07:17.238Z,1.73
2022-08-08T12:10:16.433Z,2.10
2022-08-08T12:13:07.057Z,1.80
2022-08-08T12:16:09.321Z,2.10
2022-08-08T12:18:59.186Z,1.80
2022-08-08T12:21:59.800Z,1.90
2022-08-08T12:24:56.134Z,2.53
2022-08-08T12:27:45.701Z,2.30
2022-08-08T12:30:37.772Z,1.87
2022-08-08T12:33:37.656Z,1.87
2022-08-08T12:36:46.180Z,1.80
2022-08-08T12:39:58.164Z,2.20
2022-08-08T12:42:50.682Z,2.00
2022-08-08T12:45:58.244Z,2.00
2022-08-08T12:49:21.919Z,1.83
2022-08-08T12:52:03.927Z,1.97
2022-08-08T12:55:13.165Z,1.90
2022-08-08T12:58:15.712Z,2.20
2022-08-08T13:01:11.105Z,1.80
2022-08-08T13:04:02.872Z,1.77
2022-08-08T13:07:03.986Z,2.43
2022-08-08T13:10:05.106Z,2.00
2022-08-08T13:12:52.851Z,2.10
2022-08-08T13:15:42.230Z,1.93
2022-08-08T13:18:56.333Z,2.10
2022-08-08T13:21:58.244Z,2.10
2022-08-08T13:24:51.177Z,2.30
2022-08-08T13:27:38.017Z,2.03
2022-08-08T13:30:28.339Z,1.90
2022-08-08T13:33:18.445Z,2.17
2022-08-08T13:36:07.424Z,2.20
2022-08-08T13:38:59.243Z,2.10
2022-08-08T13:41:53.530Z,2.10
2022-08-08T13:44:44.221Z,1.77
2022-08-08T13:47:32.647Z,2.10
2022-08-08T13:50:35.186Z,1.80
2022-08-08T13:53:33.809Z,1.97
2022-08-08T13:56:31.996Z,2.20
2022-08-08T13:59:32.974Z,2.00
2022-08-08T14:02:21.364Z,2.00
2022-08-08T14:05:22.197Z,2.10
2022-08-08T14:08:16.859Z,2.17
2022-08-08T14:11:18.066Z,2.43
2022-08-08T14:14:09.936Z,1.80
2022-08-08T14:16:57.298Z,1.90
2022-08-08T14:19:58.058Z,1.93
2022-08-08T14:22:52.904Z,2.00
2022-08-08T14:25:46.004Z,2.03
2022-08-08T14:28:51.874Z,2.10
2022-08-08T14:32:11.433Z,2.23
2022-08-08T14:34:59.699Z,2.03
2022-08-08T14:38:00.347Z,2.03
2022-08-08T14:40:50.465Z,2.30
2022-08-08T14:44:09.576Z,2.07
2022-08-08T14:47:01.014Z,1.70
2022-08-08T14:50:06.184Z,1.77
2022-08-08T14:52:57.027Z,2.20
2022-08-08T14:55:43.976Z,2.13
2022-08-08T14:58:32.551Z,2.17
2022-08-08T15:01:27.833Z,2.27
2022-08-08T15:04:16.112Z,2.23
2022-08-08T15:07:02.753Z,1.93
2022-08-08T15:09:51.441Z,2.23
2022-08-08T15:12:38.842Z,2.10
2022-08-08T15:16:03.095Z,2.10
2022-08-08T15:18:34.597Z,2.07
2022-08-08T15:21:22.634Z,2.83
2022-08-08T15:24:16.146Z,2.20
2022-08-08T15:27:12.130Z,2.00
2022-08-08T15:30:12.290Z,2.03
2022-08-08T15:33:00.847Z,1.90
2022-08-08T15:35:47.665Z,2.30
2022-08-08T15:38:40.636Z,2.13
2022-08-08T15:41:43.533Z,2.30
2022-08-08T15:44:31.264Z,8.87
2022-08-08T15:47:19.049Z,2.87
2022-08-08T15:50:16.774Z,2.60
2022-08-08T15:53:06.993Z,2.73
2022-08-08T15:55:55.139Z,2.13
2022-08-08T15:58:48.584Z,2.00
2022-08-08T16:01:40.719Z,2.17
2022-08-08T16:04:42.788Z,2.27
2022-08-08T16:07:51.986Z,2.27
2022-08-08T16:13:11.730Z,2.37
2022-08-08T16:13:49.605Z,2.03
2022-08-08T16:16:40.694Z,1.97
2022-08-08T16:19:30.351Z,2.20
2022-08-08T16:22:37.095Z,2.10
2022-08-08T16:25:24.468Z,2.30
2022-08-08T16:28:35.938Z,2.23
2022-08-08T16:31:24.583Z,2.00
2022-08-08T16:34:13.363Z,3.50
2022-08-08T16:37:00.237Z,2.43
2022-08-08T16:40:00.793Z,2.60
2022-08-08T16:42:51.879Z,1.90
2022-08-08T16:46:39.229Z,4.00
2022-08-08T16:48:53.431Z,2.67
2022-08-08T16:55:03.231Z,2.50
2022-08-08T16:55:22.714Z,2.00
2022-08-08T16:58:16.349Z,2.20
2022-08-08T17:01:02.757Z,2.50
2022-08-08T17:03:58.838Z,2.50
2022-08-08T17:06:47.864Z,2.70
2022-08-08T17:09:45.091Z,2.80
2022-08-08T17:12:32.480Z,2.50
2022-08-08T17:15:23.477Z,2.40
2022-08-08T17:18:15.792Z,2.53
2022-08-08T17:21:03.840Z,2.50
2022-08-08T17:24:00.017Z,2.50
2022-08-08T17:26:48.592Z,2.40
2022-08-08T17:29:43.333Z,2.60
2022-08-08T17:32:44.562Z,2.30
2022-08-08T17:35:56.191Z,2.30
2022-08-08T17:38:44.309Z,2.63
2022-08-08T17:41:39.218Z,3.30
2022-08-08T17:44:30.060Z,2.70
2022-08-08T17:47:24.145Z,2.67
2022-08-08T17:50:16.914Z,2.40
2022-08-08T17:53:03.781Z,2.60
2022-08-08T17:56:06.148Z,2.50
2022-08-08T17:58:54.925Z,3.10
2022-08-08T18:01:51.278Z,2.30
2022-08-08T18:04:48.561Z,2.60
2022-08-08T18:08:03.414Z,2.70
2022-08-08T18:10:44.590Z,2.87
2022-08-08T18:13:34.989Z,2.90
2022-08-08T18:16:30.984Z,2.10
2022-08-08T18:19:21.607Z,2.40
2022-08-08T18:22:49.805Z,2.43
2022-08-08T18:25:14.895Z,3.07
2022-08-08T18:28:01.760Z,2.50
2022-08-08T18:30:51.220Z,3.13
2022-08-08T18:34:12.451Z,2.97
2022-08-08T18:36:44.819Z,2.77
2022-08-08T18:39:36.313Z,2.93
2022-08-08T18:42:23.303Z,2.63
2022-08-08T18:45:44.950Z,2.90
2022-08-08T18:48:20.572Z,2.60
2022-08-08T18:51:33.499Z,2.80
2022-08-08T18:54:24.914Z,9.03
2022-08-08T18:57:15.841Z,3.80
2022-08-08T19:00:03.707Z,3.00
2022-08-08T19:02:56.543Z,3.43
2022-08-08T19:05:49.826Z,2.90
2022-08-08T19:08:38.227Z,2.87
2022-08-08T19:11:26.941Z,3.20
2022-08-08T19:14:20.615Z,2.47
2022-08-08T19:17:08.559Z,2.87
2022-08-08T19:20:02.242Z,2.80
2022-08-08T19:22:53.050Z,2.70
2022-08-08T19:26:19.682Z,3.00
2022-08-08T19:28:48.250Z,2.77
2022-08-08T19:31:49.207Z,2.80
2022-08-08T19:34:41.648Z,2.63
2022-08-08T19:37:43.389Z,2.90
2022-08-08T19:40:35.895Z,2.67
2022-08-08T19:43:28.626Z,2.83
2022-08-08T19:46:22.417Z,2.90
2022-08-08T19:49:09.770Z,2.77
2022-08-08T19:51:56.710Z,2.53
2022-08-08T19:54:44.253Z,2.80
2022-08-08T19:57:35.577Z,3.10
2022-08-08T20:00:30.869Z,2.70
2022-08-08T20:04:01.158Z,3.00
2022-08-08T20:06:25.132Z,2.93
2022-08-08T20:09:12.595Z,3.17
2022-08-08T20:12:14.026Z,2.63
2022-08-08T20:15:21.815Z,2.97
2022-08-08T20:18:15.545Z,2.80
2022-08-08T20:21:04.179Z,2.77
2022-08-08T20:23:52.564Z,2.50
2022-08-08T20:26:41.630Z,2.90
2022-08-08T20:29:55.494Z,2.50
2022-08-08T20:32:37.728Z,5.63
2022-08-08T20:35:24.343Z,4.77
2022-08-08T20:38:43.296Z,6.83
2022-08-08T20:41:33.767Z,3.03
2022-08-08T20:44:28.681Z,2.80
2022-08-08T20:47:23.408Z,2.40
2022-08-08T20:50:15.138Z,2.53
2022-08-08T20:53:03.401Z,2.80
2022-08-08T20:55:55.998Z,2.77
2022-08-08T20:58:46.835Z,2.43
2022-08-08T21:02:06.197Z,2.73
2022-08-08T21:05:01.621Z,2.60
2022-08-08T21:08:34.291Z,2.50
2022-08-08T21:11:08.437Z,2.50
2022-08-08T21:13:58.567Z,2.70
2022-08-08T21:16:49.565Z,2.50
2022-08-08T21:19:45.248Z,2.23
2022-08-08T21:22:33.012Z,2.90
2022-08-08T21:25:21.180Z,2.60
2022-08-08T21:28:15.886Z,2.50
2022-08-08T21:31:05.854Z,2.87
2022-08-08T21:34:09.031Z,2.20
2022-08-08T21:37:16.116Z,2.47
2022-08-08T21:40:07.938Z,3.03
2022-08-08T21:42:55.952Z,2.10
2022-08-08T21:48:06.008Z,2.73
2022-08-08T21:48:53.226Z,2.67
2022-08-08T21:54:17.654Z,2.23
2022-08-08T21:55:01.759Z,3.00
2022-08-08T21:58:05.179Z,2.60
2022-08-08T22:00:59.686Z,2.57
2022-08-08T22:03:52.530Z,2.77
2022-08-08T22:06:40.676Z,3.27
2022-08-08T22:09:41.027Z,2.40
2022-08-08T22:12:31.142Z,2.90
2022-08-08T22:15:18.321Z,2.80
2022-08-08T22:18:12.342Z,3.07
2022-08-08T22:21:10.628Z,2.70
2022-08-08T22:24:01.424Z,2.83
2022-08-08T22:27:01.597Z,2.47
2022-08-08T22:30:01.928Z,2.30
2022-08-08T22:32:49.627Z,2.40
2022-08-08T22:36:05.601Z,2.20
2022-08-08T22:38:48.466Z,2.87
2022-08-08T22:41:36.085Z,2.23
2022-08-08T22:44:25.746Z,2.50
2022-08-08T22:47:17.469Z,2.40
2022-08-08T22:50:05.804Z,2.60
2022-08-08T22:54:31.157Z,2.60
2022-08-08T22:56:15.670Z,2.67
2022-08-08T22:59:08.357Z,2.90
2022-08-08T23:02:02.371Z,2.80
2022-08-08T23:05:04.734Z,2.60
2022-08-08T23:07:57.672Z,2.73
2022-08-08T23:10:46.020Z,2.60
2022-08-08T23:13:41.880Z,2.63
2022-08-08T23:16:43.526Z,2.80
2022-08-08T23:19:32.682Z,2.77
2022-08-08T23:22:20.257Z,2.70
2022-08-08T23:25:07.700Z,2.90
2022-08-08T23:27:55.856Z,2.50
2022-08-08T23:30:46.003Z,2.67
2022-08-08T23:34:15.989Z,2.90
2022-08-08T23:36:39.058Z,2.57
2022-08-08T23:39:31.929Z,2.70
2022-08-08T23:42:27.801Z,2.33
2022-08-08T23:45:15.940Z,2.83
2022-08-08T23:49:05.198Z,2.80
2022-08-08T23:51:12.723Z,2.87
2022-08-08T23:54:41.759Z,2.60
2022-08-08T23:57:26.784Z,2.60
